sensor_id;sensor_type;location;lat;lon;timestamp;temperature;humidity
11609;DHT22;5860;52.018;8.536;2023-04-01T00:01:51;9.20;99.90
11609;DHT22;5860;52.018;8.536;2023-04-01T00:04:18;9.30;99.90
11609;DHT22;5860;52.018;8.536;2023-04-01T00:06:45;9.20;99.90
11609;DHT22;5860;52.018;8.536;2023-04-01T00:09:14;9.20;99.90
11609;DHT22;5860;52.018;8.536;2023-04-01T00:11:41;9.20;99.90
11609;DHT22;5860;52.018;8.536;2023-04-01T00:14:08;9.10;99.90
11609;DHT22;5860;52.018;8.536;2023-04-01T00:16:35;9.10;99.90
11609;DHT22;5860;52.018;8.536;2023-04-01T00:19:03;9.20;99.90
11609;DHT22;5860;52.018;8.536;2023-04-01T00:21:30;9.20;99.90
11609;DHT22;5860;52.018;8.536;2023-04-01T00:23:57;9.20;99.90
11609;DHT22;5860;52.018;8.536;2023-04-01T00:26:24;9.20;99.90
11609;DHT22;5860;52.018;8.536;2023-04-01T00:28:52;9.10;99.90
11609;DHT22;5860;52.018;8.536;2023-04-01T00:31:19;9.10;99.90
11609;DHT22;5860;52.018;8.536;2023-04-01T00:33:47;9.10;99.90
11609;DHT22;5860;52.018;8.536;2023-04-01T00:36:19;9.10;99.90
11609;DHT22;5860;52.018;8.536;2023-04-01T00:38:49;9.10;99.90
11609;DHT22;5860;52.018;8.536;2023-04-01T00:41:16;9.10;99.90
11609;DHT22;5860;52.018;8.536;2023-04-01T00:43:47;9.10;99.90
11609;DHT22;5860;52.018;8.536;2023-04-01T00:46:15;9.10;99.90
11609;DHT22;5860;52.018;8.536;2023-04-01T00:48:45;9.10;99.90
11609;DHT22;5860;52.018;8.536;2023-04-01T00:51:27;9.10;99.90
11609;DHT22;5860;52.018;8.536;2023-04-01T00:53:56;9.20;99.90
11609;DHT22;5860;52.018;8.536;2023-04-01T00:59:02;9.10;99.90
11609;DHT22;5860;52.018;8.536;2023-04-01T01:01:30;9.10;99.90
11609;DHT22;5860;52.018;8.536;2023-04-01T01:03:58;9.10;99.90
11609;DHT22;5860;52.018;8.536;2023-04-01T01:09:26;9.10;99.90
11609;DHT22;5860;52.018;8.536;2023-04-01T01:14:47;9.20;99.90
11609;DHT22;5860;52.018;8.536;2023-04-01T01:20:18;9.20;99.90
11609;DHT22;5860;52.018;8.536;2023-04-01T01:26:26;9.20;99.90
11609;DHT22;5860;52.018;8.536;2023-04-01T01:38:11;9.30;99.90
11609;DHT22;5860;52.018;8.536;2023-04-01T01:40:43;9.20;99.90
11609;DHT22;5860;52.018;8.536;2023-04-01T01:43:14;9.20;99.90
11609;DHT22;5860;52.018;8.536;2023-04-01T01:45:54;9.20;99.90
11609;DHT22;5860;52.018;8.536;2023-04-01T01:48:23;9.20;99.90
11609;DHT22;5860;52.018;8.536;2023-04-01T01:50:51;9.20;99.90
11609;DHT22;5860;52.018;8.536;2023-04-01T01:53:18;9.30;99.90
11609;DHT22;5860;52.018;8.536;2023-04-01T01:55:46;9.20;99.90
11609;DHT22;5860;52.018;8.536;2023-04-01T01:58:32;9.20;99.90
11609;DHT22;5860;52.018;8.536;2023-04-01T02:01:10;9.20;99.90
11609;DHT22;5860;52.018;8.536;2023-04-01T02:03:39;9.20;99.90
11609;DHT22;5860;52.018;8.536;2023-04-01T02:06:10;9.10;99.90
11609;DHT22;5860;52.018;8.536;2023-04-01T02:08:43;9.10;99.90
11609;DHT22;5860;52.018;8.536;2023-04-01T02:11:15;9.10;99.90
11609;DHT22;5860;52.018;8.536;2023-04-01T02:13:54;9.00;99.90
11609;DHT22;5860;52.018;8.536;2023-04-01T02:16:41;9.00;99.90
11609;DHT22;5860;52.018;8.536;2023-04-01T02:19:12;9.00;99.90
11609;DHT22;5860;52.018;8.536;2023-04-01T02:21:41;9.00;99.90
11609;DHT22;5860;52.018;8.536;2023-04-01T02:24:12;9.00;99.90
11609;DHT22;5860;52.018;8.536;2023-04-01T02:26:41;9.00;99.90
11609;DHT22;5860;52.018;8.536;2023-04-01T02:29:09;9.00;99.90
11609;DHT22;5860;52.018;8.536;2023-04-01T02:31:38;9.00;99.90
11609;DHT22;5860;52.018;8.536;2023-04-01T02:34:05;8.90;99.90
11609;DHT22;5860;52.018;8.536;2023-04-01T02:36:34;8.90;99.90
11609;DHT22;5860;52.018;8.536;2023-04-01T02:39:03;8.90;99.90
11609;DHT22;5860;52.018;8.536;2023-04-01T02:41:31;8.90;99.90
11609;DHT22;5860;52.018;8.536;2023-04-01T02:43:58;8.90;99.90
11609;DHT22;5860;52.018;8.536;2023-04-01T02:46:26;9.00;99.90
11609;DHT22;5860;52.018;8.536;2023-04-01T02:48:52;9.00;99.90
11609;DHT22;5860;52.018;8.536;2023-04-01T02:51:20;9.00;99.90
11609;DHT22;5860;52.018;8.536;2023-04-01T02:53:47;9.00;99.90
11609;DHT22;5860;52.018;8.536;2023-04-01T02:56:14;9.00;99.90
11609;DHT22;5860;52.018;8.536;2023-04-01T02:58:42;9.00;99.90
11609;DHT22;5860;52.018;8.536;2023-04-01T03:01:08;9.00;99.90
11609;DHT22;5860;52.018;8.536;2023-04-01T03:03:35;9.00;99.90
11609;DHT22;5860;52.018;8.536;2023-04-01T03:06:07;9.00;99.90
11609;DHT22;5860;52.018;8.536;2023-04-01T03:08:34;9.00;99.90
11609;DHT22;5860;52.018;8.536;2023-04-01T03:11:02;8.90;99.90
11609;DHT22;5860;52.018;8.536;2023-04-01T03:13:29;9.00;99.90
11609;DHT22;5860;52.018;8.536;2023-04-01T03:15:56;9.00;99.90
11609;DHT22;5860;52.018;8.536;2023-04-01T03:18:23;9.00;99.90
11609;DHT22;5860;52.018;8.536;2023-04-01T03:20:50;9.00;99.90
11609;DHT22;5860;52.018;8.536;2023-04-01T03:23:17;9.00;99.90
11609;DHT22;5860;52.018;8.536;2023-04-01T03:25:46;9.00;99.90
11609;DHT22;5860;52.018;8.536;2023-04-01T03:28:14;9.00;99.90
11609;DHT22;5860;52.018;8.536;2023-04-01T03:30:40;9.00;99.90
11609;DHT22;5860;52.018;8.536;2023-04-01T03:33:07;9.00;99.90
11609;DHT22;5860;52.018;8.536;2023-04-01T03:35:34;9.00;99.90
11609;DHT22;5860;52.018;8.536;2023-04-01T03:38:02;9.00;99.90
11609;DHT22;5860;52.018;8.536;2023-04-01T03:40:29;9.00;99.90
11609;DHT22;5860;52.018;8.536;2023-04-01T03:42:56;9.00;99.90
11609;DHT22;5860;52.018;8.536;2023-04-01T03:45:23;9.00;99.90
11609;DHT22;5860;52.018;8.536;2023-04-01T03:47:50;9.00;99.90
11609;DHT22;5860;52.018;8.536;2023-04-01T03:50:17;9.00;99.90
11609;DHT22;5860;52.018;8.536;2023-04-01T03:52:44;9.00;99.90
11609;DHT22;5860;52.018;8.536;2023-04-01T03:55:11;9.00;99.90
11609;DHT22;5860;52.018;8.536;2023-04-01T03:57:38;8.90;99.90
11609;DHT22;5860;52.018;8.536;2023-04-01T04:00:06;8.90;99.90
11609;DHT22;5860;52.018;8.536;2023-04-01T04:02:35;8.90;99.90
11609;DHT22;5860;52.018;8.536;2023-04-01T04:05:02;8.90;99.90
11609;DHT22;5860;52.018;8.536;2023-04-01T04:07:29;8.90;99.90
11609;DHT22;5860;52.018;8.536;2023-04-01T04:09:56;8.90;99.90
11609;DHT22;5860;52.018;8.536;2023-04-01T04:12:23;8.90;99.90
11609;DHT22;5860;52.018;8.536;2023-04-01T04:14:50;8.90;99.90
11609;DHT22;5860;52.018;8.536;2023-04-01T04:17:17;8.90;99.90
11609;DHT22;5860;52.018;8.536;2023-04-01T04:19:44;8.90;99.90
11609;DHT22;5860;52.018;8.536;2023-04-01T04:22:12;8.90;99.90
11609;DHT22;5860;52.018;8.536;2023-04-01T04:24:40;8.90;99.90
11609;DHT22;5860;52.018;8.536;2023-04-01T04:27:06;8.90;99.90
11609;DHT22;5860;52.018;8.536;2023-04-01T04:29:33;8.90;99.90
11609;DHT22;5860;52.018;8.536;2023-04-01T04:32:00;8.90;99.90
11609;DHT22;5860;52.018;8.536;2023-04-01T04:34:27;8.80;99.90
11609;DHT22;5860;52.018;8.536;2023-04-01T04:36:54;8.90;99.90
11609;DHT22;5860;52.018;8.536;2023-04-01T04:39:21;8.90;99.90
11609;DHT22;5860;52.018;8.536;2023-04-01T04:41:49;8.90;99.90
11609;DHT22;5860;52.018;8.536;2023-04-01T04:44:18;8.90;99.90
11609;DHT22;5860;52.018;8.536;2023-04-01T04:46:45;8.90;99.90
11609;DHT22;5860;52.018;8.536;2023-04-01T04:49:11;8.80;99.90
11609;DHT22;5860;52.018;8.536;2023-04-01T04:51:38;8.80;99.90
11609;DHT22;5860;52.018;8.536;2023-04-01T04:54:06;8.80;99.90
11609;DHT22;5860;52.018;8.536;2023-04-01T04:56:33;8.80;99.90
11609;DHT22;5860;52.018;8.536;2023-04-01T04:59:00;8.80;99.90
11609;DHT22;5860;52.018;8.536;2023-04-01T05:01:27;8.80;99.90
11609;DHT22;5860;52.018;8.536;2023-04-01T05:03:54;8.80;99.90
11609;DHT22;5860;52.018;8.536;2023-04-01T05:06:21;8.70;99.90
11609;DHT22;5860;52.018;8.536;2023-04-01T05:08:49;8.70;99.90
11609;DHT22;5860;52.018;8.536;2023-04-01T05:11:18;8.70;99.90
11609;DHT22;5860;52.018;8.536;2023-04-01T05:13:45;8.70;99.90
11609;DHT22;5860;52.018;8.536;2023-04-01T05:16:17;8.70;99.90
11609;DHT22;5860;52.018;8.536;2023-04-01T05:18:47;8.70;99.90
11609;DHT22;5860;52.018;8.536;2023-04-01T05:21:15;8.70;99.90
11609;DHT22;5860;52.018;8.536;2023-04-01T05:23:42;8.70;99.90
11609;DHT22;5860;52.018;8.536;2023-04-01T05:26:12;8.60;99.90
11609;DHT22;5860;52.018;8.536;2023-04-01T05:28:40;8.70;99.90
11609;DHT22;5860;52.018;8.536;2023-04-01T05:31:08;8.60;99.90
11609;DHT22;5860;52.018;8.536;2023-04-01T05:33:37;8.60;99.90
11609;DHT22;5860;52.018;8.536;2023-04-01T05:36:13;8.60;99.90
11609;DHT22;5860;52.018;8.536;2023-04-01T05:38:41;8.60;99.90
11609;DHT22;5860;52.018;8.536;2023-04-01T05:41:09;8.60;99.90
11609;DHT22;5860;52.018;8.536;2023-04-01T05:43:37;8.60;99.90
11609;DHT22;5860;52.018;8.536;2023-04-01T05:46:04;8.60;99.90
11609;DHT22;5860;52.018;8.536;2023-04-01T05:48:32;8.60;99.90
11609;DHT22;5860;52.018;8.536;2023-04-01T05:51:02;8.60;99.90
11609;DHT22;5860;52.018;8.536;2023-04-01T05:53:29;8.60;99.90
11609;DHT22;5860;52.018;8.536;2023-04-01T05:55:56;8.60;99.90
11609;DHT22;5860;52.018;8.536;2023-04-01T05:58:23;8.60;99.90
11609;DHT22;5860;52.018;8.536;2023-04-01T06:00:50;8.60;99.90
11609;DHT22;5860;52.018;8.536;2023-04-01T06:03:34;8.60;99.90
11609;DHT22;5860;52.018;8.536;2023-04-01T06:06:02;8.60;99.90
11609;DHT22;5860;52.018;8.536;2023-04-01T06:08:31;8.60;99.90
11609;DHT22;5860;52.018;8.536;2023-04-01T06:11:04;8.70;99.90
11609;DHT22;5860;52.018;8.536;2023-04-01T06:42:02;9.40;99.90
11609;DHT22;5860;52.018;8.536;2023-04-01T06:50:25;9.30;99.90
11609;DHT22;5860;52.018;8.536;2023-04-01T06:53:10;9.20;99.90
11609;DHT22;5860;52.018;8.536;2023-04-01T06:55:57;9.10;99.90
11609;DHT22;5860;52.018;8.536;2023-04-01T06:58:42;9.10;99.90
11609;DHT22;5860;52.018;8.536;2023-04-01T07:01:16;9.00;99.90
11609;DHT22;5860;52.018;8.536;2023-04-01T07:03:49;9.00;99.90
11609;DHT22;5860;52.018;8.536;2023-04-01T07:09:18;8.90;99.90
11609;DHT22;5860;52.018;8.536;2023-04-01T07:11:46;8.80;99.90
11609;DHT22;5860;52.018;8.536;2023-04-01T07:14:21;8.90;99.90
11609;DHT22;5860;52.018;8.536;2023-04-01T07:16:51;8.90;99.90
11609;DHT22;5860;52.018;8.536;2023-04-01T07:19:51;8.90;99.90
11609;DHT22;5860;52.018;8.536;2023-04-01T07:22:31;8.90;99.90
11609;DHT22;5860;52.018;8.536;2023-04-01T07:27:42;8.80;99.90
11609;DHT22;5860;52.018;8.536;2023-04-01T07:30:16;8.80;99.90
11609;DHT22;5860;52.018;8.536;2023-04-01T07:33:00;8.90;99.90
11609;DHT22;5860;52.018;8.536;2023-04-01T07:36:06;8.90;99.90
11609;DHT22;5860;52.018;8.536;2023-04-01T07:38:37;9.00;99.90
11609;DHT22;5860;52.018;8.536;2023-04-01T07:43:56;9.00;99.90
11609;DHT22;5860;52.018;8.536;2023-04-01T07:46:53;9.10;99.90
11609;DHT22;5860;52.018;8.536;2023-04-01T07:49:38;9.10;99.90
11609;DHT22;5860;52.018;8.536;2023-04-01T08:04:15;9.40;99.90
11609;DHT22;5860;52.018;8.536;2023-04-01T08:15:33;9.60;99.90
11609;DHT22;5860;52.018;8.536;2023-04-01T08:18:26;9.90;99.90
11609;DHT22;5860;52.018;8.536;2023-04-01T08:20:58;9.80;99.90
11609;DHT22;5860;52.018;8.536;2023-04-01T08:23:30;9.80;99.90
11609;DHT22;5860;52.018;8.536;2023-04-01T08:26:23;10.20;99.90
11609;DHT22;5860;52.018;8.536;2023-04-01T08:29:15;10.10;99.90
11609;DHT22;5860;52.018;8.536;2023-04-01T08:32:01;10.40;99.90
11609;DHT22;5860;52.018;8.536;2023-04-01T08:34:42;10.40;99.90
11609;DHT22;5860;52.018;8.536;2023-04-01T08:37:24;10.50;99.90
11609;DHT22;5860;52.018;8.536;2023-04-01T08:40:32;10.50;99.90
11609;DHT22;5860;52.018;8.536;2023-04-01T08:53:45;10.60;99.90
11609;DHT22;5860;52.018;8.536;2023-04-01T08:56:20;10.90;99.90
11609;DHT22;5860;52.018;8.536;2023-04-01T09:04:22;10.80;99.90
11609;DHT22;5860;52.018;8.536;2023-04-01T09:07:00;10.80;99.90
11609;DHT22;5860;52.018;8.536;2023-04-01T09:37:08;12.00;99.90
11609;DHT22;5860;52.018;8.536;2023-04-01T09:47:52;12.30;99.90
11609;DHT22;5860;52.018;8.536;2023-04-01T09:50:35;12.00;99.90
11609;DHT22;5860;52.018;8.536;2023-04-01T10:01:17;11.20;99.90
11609;DHT22;5860;52.018;8.536;2023-04-01T10:38:38;12.60;99.90
11609;DHT22;5860;52.018;8.536;2023-04-01T10:55:35;11.80;99.90
11609;DHT22;5860;52.018;8.536;2023-04-01T11:09:12;11.50;99.90
11609;DHT22;5860;52.018;8.536;2023-04-01T11:14:59;11.90;99.90
11609;DHT22;5860;52.018;8.536;2023-04-01T11:23:17;11.70;99.90
11609;DHT22;5860;52.018;8.536;2023-04-01T11:39:50;11.80;99.90
11609;DHT22;5860;52.018;8.536;2023-04-01T11:45:30;11.80;99.90
11609;DHT22;5860;52.018;8.536;2023-04-01T11:48:24;11.70;99.90
11609;DHT22;5860;52.018;8.536;2023-04-01T12:05:19;12.20;99.90
11609;DHT22;5860;52.018;8.536;2023-04-01T12:16:04;11.90;99.90
11609;DHT22;5860;52.018;8.536;2023-04-01T12:21:38;11.90;99.90
11609;DHT22;5860;52.018;8.536;2023-04-01T12:32:38;11.70;99.90
11609;DHT22;5860;52.018;8.536;2023-04-01T12:38:12;12.10;99.90
11609;DHT22;5860;52.018;8.536;2023-04-01T12:43:26;11.90;99.90
11609;DHT22;5860;52.018;8.536;2023-04-01T13:28:32;11.10;99.90
11609;DHT22;5860;52.018;8.536;2023-04-01T13:34:13;11.30;99.90
11609;DHT22;5860;52.018;8.536;2023-04-01T13:39:52;11.40;99.90
11609;DHT22;5860;52.018;8.536;2023-04-01T13:42:53;11.70;99.90
11609;DHT22;5860;52.018;8.536;2023-04-01T13:45:24;11.40;99.90
11609;DHT22;5860;52.018;8.536;2023-04-01T13:53:31;11.90;99.90
11609;DHT22;5860;52.018;8.536;2023-04-01T13:59:08;11.90;99.90
11609;DHT22;5860;52.018;8.536;2023-04-01T14:13:03;11.60;99.90
11609;DHT22;5860;52.018;8.536;2023-04-01T14:19:44;11.40;99.90
11609;DHT22;5860;52.018;8.536;2023-04-01T14:40:33;11.30;99.90
11609;DHT22;5860;52.018;8.536;2023-04-01T14:43:54;11.20;99.90
11609;DHT22;5860;52.018;8.536;2023-04-01T14:49:20;11.10;99.90
11609;DHT22;5860;52.018;8.536;2023-04-01T14:51:49;11.10;99.90
11609;DHT22;5860;52.018;8.536;2023-04-01T14:54:31;11.20;99.90
11609;DHT22;5860;52.018;8.536;2023-04-01T14:59:32;11.20;99.90
11609;DHT22;5860;52.018;8.536;2023-04-01T15:02:29;11.40;99.90
11609;DHT22;5860;52.018;8.536;2023-04-01T15:11:03;11.40;99.90
11609;DHT22;5860;52.018;8.536;2023-04-01T15:16:48;11.50;99.90
11609;DHT22;5860;52.018;8.536;2023-04-01T15:22:25;11.30;99.90
11609;DHT22;5860;52.018;8.536;2023-04-01T15:28:19;11.10;99.90
11609;DHT22;5860;52.018;8.536;2023-04-01T15:40:01;10.70;99.90
11609;DHT22;5860;52.018;8.536;2023-04-01T15:45:56;10.90;99.90
11609;DHT22;5860;52.018;8.536;2023-04-01T15:48:49;10.60;99.90
11609;DHT22;5860;52.018;8.536;2023-04-01T15:57:29;10.60;99.90
11609;DHT22;5860;52.018;8.536;2023-04-01T16:02:48;10.50;99.90
11609;DHT22;5860;52.018;8.536;2023-04-01T16:10:52;10.50;99.90
11609;DHT22;5860;52.018;8.536;2023-04-01T16:16:31;10.60;99.90
11609;DHT22;5860;52.018;8.536;2023-04-01T16:21:59;10.40;99.90
11609;DHT22;5860;52.018;8.536;2023-04-01T16:24:48;10.40;99.90
11609;DHT22;5860;52.018;8.536;2023-04-01T16:27:37;10.30;99.90
11609;DHT22;5860;52.018;8.536;2023-04-01T16:38:46;10.20;99.90
11609;DHT22;5860;52.018;8.536;2023-04-01T16:41:32;10.20;99.90
11609;DHT22;5860;52.018;8.536;2023-04-01T16:44:17;10.10;99.90
11609;DHT22;5860;52.018;8.536;2023-04-01T16:46:55;10.10;99.90
11609;DHT22;5860;52.018;8.536;2023-04-01T16:49:51;10.00;99.90
11609;DHT22;5860;52.018;8.536;2023-04-01T16:52:51;10.00;99.90
11609;DHT22;5860;52.018;8.536;2023-04-01T16:55:50;10.10;99.90
11609;DHT22;5860;52.018;8.536;2023-04-01T16:58:27;10.10;99.90
11609;DHT22;5860;52.018;8.536;2023-04-01T17:01:30;10.10;99.90
11609;DHT22;5860;52.018;8.536;2023-04-01T17:07:43;10.10;99.90
11609;DHT22;5860;52.018;8.536;2023-04-01T17:21:03;10.20;99.90
11609;DHT22;5860;52.018;8.536;2023-04-01T17:23:52;10.20;99.90
11609;DHT22;5860;52.018;8.536;2023-04-01T17:26:43;10.10;99.90
11609;DHT22;5860;52.018;8.536;2023-04-01T17:29:33;9.90;99.90
11609;DHT22;5860;52.018;8.536;2023-04-01T17:45:56;9.10;99.90
11609;DHT22;5860;52.018;8.536;2023-04-01T17:48:32;9.00;99.90
11609;DHT22;5860;52.018;8.536;2023-04-01T17:56:39;8.90;99.90
11609;DHT22;5860;52.018;8.536;2023-04-01T18:21:35;8.60;99.90
11609;DHT22;5860;52.018;8.536;2023-04-01T18:24:29;8.70;99.90
11609;DHT22;5860;52.018;8.536;2023-04-01T18:27:17;8.50;99.90
11609;DHT22;5860;52.018;8.536;2023-04-01T18:32:50;8.40;99.90
11609;DHT22;5860;52.018;8.536;2023-04-01T18:38:07;8.00;99.90
11609;DHT22;5860;52.018;8.536;2023-04-01T18:41:54;8.40;99.90
11609;DHT22;5860;52.018;8.536;2023-04-01T18:49:21;8.10;99.90
11609;DHT22;5860;52.018;8.536;2023-04-01T18:51:59;8.10;99.90
11609;DHT22;5860;52.018;8.536;2023-04-01T18:54:31;8.00;99.90
11609;DHT22;5860;52.018;8.536;2023-04-01T18:57:12;7.90;99.90
11609;DHT22;5860;52.018;8.536;2023-04-01T18:59:53;7.90;99.90
11609;DHT22;5860;52.018;8.536;2023-04-01T19:05:51;7.80;99.90
11609;DHT22;5860;52.018;8.536;2023-04-01T19:08:18;7.80;99.90
11609;DHT22;5860;52.018;8.536;2023-04-01T19:18:50;7.50;99.90
11609;DHT22;5860;52.018;8.536;2023-04-01T19:21:37;7.50;99.90
11609;DHT22;5860;52.018;8.536;2023-04-01T19:47:02;7.10;99.90
11609;DHT22;5860;52.018;8.536;2023-04-01T19:58:02;7.10;99.90
11609;DHT22;5860;52.018;8.536;2023-04-01T20:00:39;7.00;99.90
11609;DHT22;5860;52.018;8.536;2023-04-01T20:14:28;6.80;99.90
11609;DHT22;5860;52.018;8.536;2023-04-01T20:24:54;6.60;99.90
11609;DHT22;5860;52.018;8.536;2023-04-01T20:27:27;6.60;99.90
11609;DHT22;5860;52.018;8.536;2023-04-01T20:35:44;6.60;99.90
11609;DHT22;5860;52.018;8.536;2023-04-01T20:43:52;6.50;99.90
11609;DHT22;5860;52.018;8.536;2023-04-01T20:46:48;6.50;99.90
11609;DHT22;5860;52.018;8.536;2023-04-01T21:01:19;6.40;99.90
11609;DHT22;5860;52.018;8.536;2023-04-01T21:12:50;6.20;99.90
11609;DHT22;5860;52.018;8.536;2023-04-01T21:26:43;6.00;99.90
11609;DHT22;5860;52.018;8.536;2023-04-01T21:29:46;6.00;99.90
11609;DHT22;5860;52.018;8.536;2023-04-01T21:38:00;5.90;99.90
11609;DHT22;5860;52.018;8.536;2023-04-01T21:49:09;5.60;99.90
11609;DHT22;5860;52.018;8.536;2023-04-01T21:55:20;5.60;99.90
11609;DHT22;5860;52.018;8.536;2023-04-01T21:58:09;5.50;99.90
11609;DHT22;5860;52.018;8.536;2023-04-01T22:00:48;5.50;99.90
11609;DHT22;5860;52.018;8.536;2023-04-01T22:05:59;5.40;99.90
11609;DHT22;5860;52.018;8.536;2023-04-01T22:17:04;5.30;99.90
11609;DHT22;5860;52.018;8.536;2023-04-01T22:22:45;5.20;99.90
11609;DHT22;5860;52.018;8.536;2023-04-01T22:26:05;5.20;99.90
11609;DHT22;5860;52.018;8.536;2023-04-01T22:28:12;5.10;99.90
11609;DHT22;5860;52.018;8.536;2023-04-01T22:30:58;5.00;99.90
11609;DHT22;5860;52.018;8.536;2023-04-01T22:42:21;4.90;99.90
11609;DHT22;5860;52.018;8.536;2023-04-01T22:52:46;4.90;99.90
11609;DHT22;5860;52.018;8.536;2023-04-01T22:55:24;4.80;99.90
11609;DHT22;5860;52.018;8.536;2023-04-01T22:57:58;4.90;99.90
11609;DHT22;5860;52.018;8.536;2023-04-01T23:00:48;4.80;99.90
11609;DHT22;5860;52.018;8.536;2023-04-01T23:03:28;4.80;99.90
11609;DHT22;5860;52.018;8.536;2023-04-01T23:06:02;4.80;99.90
11609;DHT22;5860;52.018;8.536;2023-04-01T23:13:49;4.80;99.90
11609;DHT22;5860;52.018;8.536;2023-04-01T23:16:28;4.90;99.90
11609;DHT22;5860;52.018;8.536;2023-04-01T23:19:07;4.90;99.90
11609;DHT22;5860;52.018;8.536;2023-04-01T23:29:47;4.70;99.90
11609;DHT22;5860;52.018;8.536;2023-04-01T23:32:23;4.60;99.90
11609;DHT22;5860;52.018;8.536;2023-04-01T23:34:58;4.60;99.90
11609;DHT22;5860;52.018;8.536;2023-04-01T23:37:26;4.50;99.90
11609;DHT22;5860;52.018;8.536;2023-04-01T23:40:00;4.50;99.90
11609;DHT22;5860;52.018;8.536;2023-04-01T23:42:32;4.60;99.90
11609;DHT22;5860;52.018;8.536;2023-04-01T23:45:05;4.50;99.90
11609;DHT22;5860;52.018;8.536;2023-04-01T23:47:39;4.60;99.90
11609;DHT22;5860;52.018;8.536;2023-04-01T23:50:16;4.60;99.90
11609;DHT22;5860;52.018;8.536;2023-04-01T23:52:51;4.50;99.90
11609;DHT22;5860;52.018;8.536;2023-04-01T23:55:26;4.40;99.90
11609;DHT22;5860;52.018;8.536;2023-04-01T23:58:13;4.30;99.90
